Mabel, MN (55954)

5:19 AM CST on January 25, 2015 (GMT -0600)
500 Nannestad Lane | Change Station
CLOSE
Current Station
Personal Weather Station
Location: Rushford, MN
Elevation: 728 ft
Nearby Weather Stations

Elev 728 ft 43.81 °N, 91.75 °W | Updated 13 minutes ago

Overcast
Overcast
31.5 °F
Feels Like 28 °F
N
3.2
Wind Variable Wind from North

Today
High -- | Low -- °F
--% Chance of Precip.
Yesterday
High -- | Low -- °F
Precip. -- in
7:30 AM 5:08 PM
Waxing Crescent, 31% visible
Pressure 29.69 in
Visibility 6.0 miles
Clouds Overcast 900 ft
Windchill 28 °F
Dew Point 28 °F
Humidity 85%
Rainfall 0.00 in
Snow Depth Not available.
UV 0 out of 12
Pollen .10 out of 12
Air Quality Not available.
Flu Activity Not available.
METAR KDEH 251055Z AUTO 06010G16KT 6SM -SN OVC009 01/M00 A2969 RMK AO2

More Conditions Fewer Conditions

Pressure 29.69 in
Visibility 6.0 miles
Clouds Overcast 900 ft
Windchill 28 °F
Dew Point 28 °F
Humidity 85%
Rainfall 0.00 in
Snow Depth Not available.
UV 0 out of 12
Pollen .10 out of 12
Air Quality Not available.
Flu Activity Not available.
METAR KDEH 251055Z AUTO 06010G16KT 6SM -SN OVC009 01/M00 A2969 RMK AO2

More Conditions Fewer Conditions

10-Day Weather Forecast

Almanac

Astronomy

Jan. 25, 2015 Rise Set
Actual Time
Civil Twilight
Nautical Twilight
Astronomical Twilight
Moon
Length of Visible Light
Length of Day
Tomorrow will be .
, % of the Moon is Illuminated

Today's Extremes

State Highs State Lows

Community

WunderPhotos

Upload Photos

1,789,869 photos uploaded!

WunderBlogs® & News

Nearby

Air Quality

  Air Quality AQ Index Pollutant
Not available.

Snow Depth

Station Depth Elevation

Earthquake Activity

City Distance Mag. Time & Date
Minimum magnitude displayed is 2.5.

Coastal Water Temperatures

Place Temperature

Nearby Weather Stations